Tiempo atmosférico en la estación meteorológica de Alcalá del Júcar, Albacete (680 m.)



Fecha
DESCASC
Temp. máxima en grados centígrados (hora)
DESCASC
Temp. mínima en grados centígrados (hora)
DESCASC
Temp. media en grados centígrados
DESCASC
Racha de viento máxima en m/sg (hora)
DESCASC
Velocidad máxima media en intervalos de 10 minutos(hora)
DESCASC
Precipitaciones diarias en mm
DESCASC
Precipitaciones de 00:00 a 06:00 en mm
DESCASC
Precipitaciones de 06:00 a 12:00 en mm
DESCASC
Precipitaciones de 12:00 a 18:00 en mm
DESCASC
Precipitaciones de 18:00 a 24:00 en mm
DESCASC
22-04-2019 14 (12:50) 7.9 (06:10) 11 7.78 (15:10) 4.17 (15:30) 2.6 2.6 0 0 0
21-04-2019 9.9 (12:10) 8.2 (23:00) 9 8.33 (00:20) 3.89 (13:40) 23.2 0 0 1.4 21.8
20-04-2019 11.7 (16:00) 9.1 (10:40) 10.4 18.06 (12:10) 7.78 (12:30) 4.4 3.8 0.4 0.2 0
19-04-2019 10 (23:59) 7.5 (21:50) 8.8 7.5 (23:50) 3.33 (17:10) 67.4 0 5.4 32 30
18-04-2019 11.4 (00:00) 8.4 (00:00) 9.9 11.11 (14:50) 5 (14:50) 16.6 0 0 13.8 2.8
17-04-2019 22.6 (15:10) 9.2 (00:00) 15.9 10.56 (17:50) 5.56 (17:50) 0 0 0 0 0
16-04-2019 23.5 (16:00) 8.3 (00:00) 15.9 9.17 (18:50) 3.89 (18:00) 0 0 0 0 0
15-04-2019 22.1 (17:00) 11.2 (00:00) 16.7 9.44 (16:30) 5.28 (20:20) 0 0 0 0 0
14-04-2019 24.1 (16:50) 7 (00:00) 15.6 12.5 (15:00) 5 (15:00) 0 0 0 0 0
13-04-2019 22.8 (16:40) 3.5 (00:00) 13.1 9.44 (13:40) 5 (13:20) 0 0 0 0 0
12-04-2019 19 (16:20) 2.2 (00:00) 10.6 9.17 (18:20) 4.44 (17:30) 0 0 0 0 0
11-04-2019 17.6 (15:50) 2.1 (00:00) 9.9 9.72 (16:20) 4.44 (16:20) 0 0 0 0 0
10-04-2019 15.4 (15:30) 5.4 (00:00) 10.4 12.22 (15:20) 7.5 (17:30) 0 0 0 0 0
09-04-2019 12.7 (16:40) 5.8 (00:00) 9.3 13.89 (17:20) 9.44 (17:20) 3.6 0 0 1 2.6
08-04-2019 17.4 (15:40) 8.3 (00:00) 12.8 12.78 (18:20) 6.67 (15:50) 1.6 0 0.4 0.2 1
07-04-2019 14.7 (17:30) 3.4 (00:00) 9 13.61 (14:40) 7.5 (16:50) 0.2 0.2 0 0 0
06-04-2019 10.2 (14:50) 3.4 (00:00) 6.8 15.28 (15:00) 8.61 (16:10) 3.2 0 0 2.6 0.6
05-04-2019 12.1 (12:30) 4.3 (00:00) 8.2 13.33 (17:40) 7.5 (17:40) 3.6 0 0 2.8 0.8
04-04-2019 15.5 (17:00) 2 (00:00) 8.8 9.17 (22:30) 4.44 (22:20) 0 0 0 0 0
03-04-2019 17.9 (17:40) 5.9 (00:00) 11.9 13.33 (19:00) 7.5 (18:40) 0 0 0 0 0
02-04-2019 17.3 (16:50) 5.6 (00:00) 11.4 8.61 (17:10) 5.56 (17:40) 4.4 0.2 0 3.8 0.4
01-04-2019 14 (14:30) 8.4 (00:00) 11.2 6.11 (15:30) 3.61 (19:10) 3.2 0.6 1.4 0 1.2
31-03-2019 9.1 (17:00) 6.4 (00:00) 7.8 7.78 (14:30) 3.61 (10:50) 12.8 0 8.8 3.2 0.8
30-03-2019 17.3 (14:30) 3.5 (00:00) 10.4 9.17 (16:30) 3.89 (17:10) 0 0 0 0 0
29-03-2019 17.2 (15:20) 1.2 (00:00) 9.2 9.17 (13:10) 4.17 (13:20) 0 0 0 0 0
28-03-2019 18.9 (14:50) -0.8 (-00:0) 9 8.33 (16:30) 4.17 (18:30) 0 0 0 0 0
27-03-2019 17.8 (15:00) 1.8 (00:00) 9.8 8.89 (14:40) 4.17 (17:10) 0 0 0 0 0
26-03-2019 18.1 (14:50) 3.9 (00:00) 11 11.67 (09:50) 5.83 (10:40) 0 0 0 0 0
25-03-2019 22.3 (15:10) 1.4 (00:00) 11.8 7.5 (12:50) 3.33 (14:20) 0 0 0 0 0

Gráficas

Temp. máximas Temp. mínimas Temp. medias Precipitaciones Rachas de viento máximas Velocidades máximas media en intervalos de 10 minutos

Datos horarios

Fecha y hora oficial Temperatura (ºC) Velocidad del viento (km/h) Dirección del viento Racha (km/h) Dirección de racha Precipitación (mm) Presión (hPa) Tendencia (hPa) Humedad (%)
2019-04-23 23:00:00 6.9 17 Oeste 34 Oeste 0 -- -- 75
2019-04-23 22:00:00 7.1 9 Oeste 19 Sudoeste 0 -- -- 77
2019-04-23 21:00:00 7.5 10 Oeste 47 Noroeste 0 -- -- 76
2019-04-23 20:00:00 10.1 30 Oeste 53 Noroeste 0 -- -- 64
2019-04-23 19:00:00 12.1 23 Oeste 37 Oeste 0 -- -- 53
2019-04-23 18:00:00 12.1 16 Noroeste 42 Oeste 0 -- -- 70
2019-04-23 17:00:00 12.4 18 Oeste 36 Oeste 0 -- -- 63
2019-04-23 16:00:00 12.2 10 Oeste 26 Sudoeste 0 -- -- 71
2019-04-23 15:00:00 11 6 Sudoeste 22 Oeste 0.6 -- -- 86
2019-04-23 14:00:00 10.1 10 Oeste 34 Oeste 1 -- -- 83
2019-04-23 13:00:00 12.6 12 Oeste 23 Oeste 0 -- -- 73
2019-04-23 12:00:00 12.9 9 Oeste 36 Sudoeste 0 -- -- 69
2019-04-23 11:00:00 13.1 17 Oeste 33 Oeste 0 -- -- 68
2019-04-23 10:00:00 11.3 6 Oeste 15 Oeste 0 -- -- 78
2019-04-23 09:00:00 9.2 0 Calma 9 Oeste 0 -- -- 84
2019-04-23 08:00:00 8.6 3 Sudoeste 13 Oeste 0 -- -- 84
2019-04-23 07:00:00 8.3 6 Oeste 12 Oeste 0 -- -- 85
2019-04-23 06:00:00 8.8 3 Oeste 17 Oeste 0 -- -- 84
2019-04-23 05:00:00 9.3 4 Oeste 10 Oeste 0 -- -- 84
2019-04-23 04:00:00 9.5 8 Oeste 16 Oeste 0 -- -- 85
2019-04-23 03:00:00 9.1 5 Oeste 8 Oeste 0 -- -- 85
2019-04-23 02:00:00 9.2 4 Oeste 8 Oeste 0 -- -- 83
2019-04-23 01:00:00 9.9 4 Oeste 14 Oeste 0 -- -- 82
2019-04-23 00:00:00 10.4 9 Oeste 13 Oeste 0 -- -- 81
2019-04-22 23:00:00 11.5 6 Sudoeste 12 Sudoeste 0 -- -- 80
2019-04-22 22:00:00 12.1 7 Oeste 16 Oeste 0 -- -- 79
2019-04-22 21:00:00 12.9 9 Oeste 17 Oeste 0 -- -- 76
2019-04-22 20:00:00 13.3 8 Oeste 19 Oeste 0 -- -- 71
2019-04-22 19:00:00 13.1 8 Oeste 20 Oeste 0 -- -- 73
2019-04-22 18:00:00 12.9 10 Oeste 23 Oeste 0 -- -- 74
2019-04-22 17:00:00 12.8 11 Oeste 26 Oeste 0 -- -- 75
2019-04-22 16:00:00 12.4 14 Oeste 28 Noroeste 0 -- -- 75
2019-04-22 15:00:00 13 14 Noroeste 24 Noroeste 0 -- -- 74
2019-04-22 14:00:00 13.9 6 Nordeste 16 Norte 0 -- -- 70
2019-04-22 13:00:00 14 6 Norte 18 Noroeste 0 -- -- 72
2019-04-22 12:00:00 12.4 8 Norte 18 Noroeste 0 -- -- 81
2019-04-22 11:00:00 10.4 4 Sudoeste 9 Noroeste 0 -- -- 93
2019-04-22 10:00:00 9.1 3 Oeste 9 Sudoeste 0 -- -- 94
2019-04-22 09:00:00 8.4 3 Sudoeste 6 Oeste 0 -- -- 94
2019-04-22 08:00:00 7.9 3 Sudoeste 8 Oeste 0 -- -- 94
2019-04-22 07:00:00 7.9 4 Oeste 7 Oeste 0 -- -- 94
2019-04-22 06:00:00 8 3 Sudoeste 5 Sudoeste 0 -- -- 94
2019-04-22 05:00:00 8.1 0 Calma 8 Noroeste 0 -- -- 94
2019-04-22 04:00:00 8.1 4 Norte 8 Noroeste 0 -- -- 94
2019-04-22 03:00:00 8 4 Norte 13 Nordeste 0.2 -- -- 94
2019-04-22 02:00:00 8.1 9 Nordeste 18 Nordeste 0.4 -- -- 94
2019-04-22 01:00:00 8.2 10 Nordeste 21 Nordeste 2 -- -- 94
2019-04-22 00:00:00 8.2 3 Norte 8 Norte 4.8 -- -- 94
2019-04-21 23:00:00 8.2 3 Nordeste 9 Norte 8.4 -- -- 93
2019-04-21 22:00:00 8.4 0 Calma 8 Oeste 3.6 -- -- 93
2019-04-21 21:00:00 8.6 2 Oeste 5 Este 3.6 -- -- 91
2019-04-21 20:00:00 8.7 3 Sudeste 23 Este 1.4 -- -- 90
2019-04-21 19:00:00 9.2 10 Nordeste 25 Este 0 -- -- 87
2019-04-21 18:00:00 9.7 10 Nordeste 21 Nordeste 0.2 -- -- 88
2019-04-21 17:00:00 9.5 6 Nordeste 16 Este 0.2 -- -- 88
2019-04-21 16:00:00 9.4 6 Nordeste 19 Nordeste 1 -- -- 89
2019-04-21 15:00:00 9.3 9 Nordeste 26 Nordeste 0 -- -- 89
2019-04-21 14:00:00 9 12 Nordeste 26 Nordeste 0 -- -- 88
2019-04-21 13:00:00 9.7 7 Nordeste 23 Este 0 -- -- 81
2019-04-21 12:00:00 9.8 8 Nordeste 23 Nordeste 0 -- -- 76
2019-04-21 11:00:00 9.7 8 Nordeste 20 Nordeste 0 -- -- 77
2019-04-21 10:00:00 9 5 Nordeste 16 Nordeste 0 -- -- 80
2019-04-21 09:00:00 8.5 4 Nordeste 14 Norte 0 -- -- 83
2019-04-21 08:00:00 8.3 8 Nordeste 18 Nordeste 0 -- -- 81
2019-04-21 07:00:00 8.3 6 Nordeste 18 Nordeste 0 -- -- 81
2019-04-21 06:00:00 8.5 8 Nordeste 22 Nordeste 0 -- -- 79
2019-04-21 05:00:00 8.6 9 Nordeste 29 Nordeste 0 -- -- 76
2019-04-21 04:00:00 8.7 9 Nordeste 23 Nordeste 0 -- -- 74
2019-04-21 03:00:00 8.7 7 Nordeste 20 Este 0 -- -- 77
2019-04-21 02:00:00 8.7 8 Nordeste 20 Este 0 -- -- 78
2019-04-21 01:00:00 8.9 9 Nordeste 30 Nordeste 0 -- -- 78
2019-04-21 00:00:00 9.1 10 Nordeste 26 Este 0 -- -- 74
2019-04-20 23:00:00 9.3 10 Este 30 Este 0 -- -- 72
2019-04-20 22:00:00 9.3 10 Nordeste 23 Este 0 -- -- 72
2019-04-20 21:00:00 9.9 10 Nordeste 39 Nordeste 0 -- -- 70
2019-04-20 20:00:00 10.6 15 Nordeste 41 Nordeste 0 -- -- 67
2019-04-20 19:00:00 11.3 20 Este 49 Este 0 -- -- 68
2019-04-20 18:00:00 11.4 22 Este 58 Nordeste 0 -- -- 69
2019-04-20 17:00:00 11.5 19 Este 51 Nordeste 0 -- -- 72
2019-04-20 16:00:00 11.7 23 Este 54 Norte 0 -- -- 72
2019-04-20 15:00:00 10.1 19 Este 63 Este 0 -- -- 82
2019-04-20 14:00:00 11.1 24 Este 57 Este 0 -- -- 79
2019-04-20 13:00:00 10.9 20 Este 65 Este 0.2 -- -- 78
2019-04-20 12:00:00 10.6 21 Este 50 Nordeste 0 -- -- 80
2019-04-20 11:00:00 9.3 22 Este 53 Este 0.2 -- -- 82
2019-04-20 10:00:00 9.5 25 Este 55 Este 0.2 -- -- 79
2019-04-20 09:00:00 10.8 20 Este 46 Este 0 -- -- 68
2019-04-20 08:00:00 10.5 14 Este 42 Nordeste 0 -- -- 69
2019-04-20 07:00:00 10.2 23 Nordeste 55 Nordeste 0 -- -- 72
2019-04-20 06:00:00 10.2 18 Este 45 Este 0 -- -- 75
2019-04-20 05:00:00 9.8 16 Este 41 Este 0 -- -- 83
2019-04-20 04:00:00 9.8 15 Este 41 Este 0 -- -- 86
2019-04-20 03:00:00 9.8 18 Este 55 Este 0.2 -- -- 89
2019-04-20 02:00:00 9.8 19 Nordeste 48 Este 0.8 -- -- 93
2019-04-20 01:00:00 10.1 10 Nordeste 34 Nordeste 2.8 -- -- 95
2019-04-20 00:00:00 10 10 Este 27 Este 0.8 -- -- 95
2019-04-19 23:00:00 7.7 6 Noroeste 22 Noroeste 2.4 -- -- 95
2019-04-19 22:00:00 7.5 10 Noroeste 23 Noroeste 12.2 -- -- 95
2019-04-19 21:00:00 7.8 8 Noroeste 13 Noroeste 6 -- -- 94
2019-04-19 20:00:00 8.2 7 Noroeste 13 Norte 5.6 -- -- 94
2019-04-19 19:00:00 8.4 3 Norte 16 Noroeste 3 -- -- 94
2019-04-19 18:00:00 8.6 5 Norte 21 Norte 5.6 -- -- 94
2019-04-19 17:00:00 8.9 11 Norte 20 Norte 4.4 -- -- 94
2019-04-19 16:00:00 9.2 5 Norte 15 Norte 5.2 -- -- 94
2019-04-19 15:00:00 9.2 8 Norte 12 Norte 5.4 -- -- 95
2019-04-19 14:00:00 9 9 Nordeste 15 Nordeste 6.4 -- -- 94
2019-04-19 13:00:00 9.2 9 Nordeste 15 Nordeste 5 -- -- 94
2019-04-19 12:00:00 9.4 2 Norte 9 Sudeste 3.6 -- -- 94
2019-04-19 11:00:00 9.3 3 Sur 13 Sudeste 1.2 -- -- 95
2019-04-19 10:00:00 9.4 2 Sudeste 13 Este 0.6 -- -- 95
2019-04-19 09:00:00 8.9 4 Este 14 Este 0 -- -- 96
2019-04-19 08:00:00 8.4 3 Este 9 Nordeste 0 -- -- 95
2019-04-19 07:00:00 8.2 3 Este 6 Este 0 -- -- 96
2019-04-19 06:00:00 8 3 Nordeste 10 Este 0 -- -- 96
2019-04-19 05:00:00 7.7 3 Este 7 Este 0 -- -- 96
2019-04-19 04:00:00 7.6 0 Calma 5 Este 0 -- -- 95
2019-04-19 03:00:00 7.6 0 Calma 6 Nordeste 0 -- -- 95
2019-04-19 02:00:00 7.9 2 Noroeste 4 Sudoeste 0 -- -- 95
2019-04-19 01:00:00 8.2 0 Calma 6 Sudeste 0 -- -- 94
2019-04-19 00:00:00 8.4 2 Este 9 Este 0 -- -- 94
2019-04-18 23:00:00 8.6 4 Nordeste 13 Este 0.2 -- -- 94
2019-04-18 22:00:00 8.8 7 Nordeste 18 Nordeste 0 -- -- 94
2019-04-18 21:00:00 8.8 3 Este 11 Este 0 -- -- 94
2019-04-18 20:00:00 8.5 6 Este 19 Este 1.4 -- -- 94
2019-04-18 19:00:00 8.4 7 Este 19 Nordeste 1.2 -- -- 93
2019-04-18 18:00:00 8.8 6 Nordeste 17 Nordeste 3.4 -- -- 93
2019-04-18 17:00:00 8.9 6 Sudoeste 30 Oeste 2.2 -- -- 93
2019-04-18 16:00:00 8.8 8 Sudoeste 27 Oeste 2.2 -- -- 92
2019-04-18 15:00:00 8.8 14 Oeste 40 Oeste 4.2 -- -- 92
2019-04-18 14:00:00 10.6 7 Este 15 Sudeste 1.4 -- -- 92
2019-04-18 13:00:00 10.5 4 Este 13 Sudeste 0.4 -- -- 90
2019-04-18 12:00:00 10.6 4 Este 16 Este 0 -- -- 87
2019-04-18 11:00:00 10.8 8 Sudeste 23 Este 0 -- -- 84
2019-04-18 10:00:00 10.8 9 Este 27 Este 0 -- -- 81
2019-04-18 09:00:00 10.5 8 Este 32 Sudeste 0 -- -- 79
2019-04-18 08:00:00 9.3 3 Este 14 Nordeste 0 -- -- 84
2019-04-18 07:00:00 9.7 6 Este 21 Nordeste 0 -- -- 83
2019-04-18 06:00:00 9.8 5 Nordeste 30 Sudeste 0 -- -- 83
2019-04-18 05:00:00 9.9 5 Nordeste 18 Este 0 -- -- 84
2019-04-18 04:00:00 10.1 5 Este 19 Nordeste 0 -- -- 83
2019-04-18 03:00:00 10.5 8 Este 19 Este 0 -- -- 81
2019-04-18 02:00:00 11.2 8 Nordeste 23 Sudeste 0 -- -- 76
2019-04-18 01:00:00 11 11 Sudeste 32 Sudeste 0 -- -- 79
2019-04-18 00:00:00 11.4 8 Este 21 Nordeste 0 -- -- 79
2019-04-17 23:00:00 11.7 6 Este 20 Nordeste 0 -- -- 80
2019-04-17 22:00:00 12 6 Este 26 Sudeste 0 -- -- 78
2019-04-17 21:00:00 12.6 12 Este 27 Este 0 -- -- 75
2019-04-17 20:00:00 14 13 Este 31 Este 0 -- -- 70
2019-04-17 19:00:00 16.3 11 Este 31 Sudeste 0 -- -- 62
2019-04-17 18:00:00 18.8 18 Sudeste 38 Sudeste 0 -- -- 54
2019-04-17 17:00:00 19.9 18 Este 33 Sudeste 0 -- -- 52
2019-04-17 16:00:00 21.3 11 Este 30 Sudeste 0 -- -- 46
2019-04-17 15:00:00 22.3 12 Este 28 Sudeste 0 -- -- 42
2019-04-17 14:00:00 21.2 11 Sudeste 27 Sudeste 0 -- -- 45
2019-04-17 13:00:00 19.3 12 Este 30 Este 0 -- -- 50
2019-04-17 12:00:00 17.4 9 Este 24 Sudeste 0 -- -- 56
2019-04-17 11:00:00 15 12 Este 26 Sudeste 0 -- -- 63
2019-04-17 10:00:00 12.8 10 Sudeste 19 Sudeste 0 -- -- 71
2019-04-17 09:00:00 10.9 8 Sudeste 19 Sudeste 0 -- -- 80
2019-04-17 08:00:00 10.1 4 Este 15 Sudeste 0 -- -- 82
2019-04-17 07:00:00 10.4 6 Sudeste 15 Sudeste 0 -- -- 80
2019-04-17 06:00:00 10.5 5 Este 15 Este 0 -- -- 80
2019-04-17 05:00:00 10.3 8 Sudeste 20 Sudeste 0 -- -- 81
2019-04-17 04:00:00 9.7 10 Sudeste 22 Sudeste 0 -- -- 83
2019-04-17 03:00:00 9.6 6 Este 21 Este 0 -- -- 82
2019-04-17 02:00:00 9.5 9 Este 21 Nordeste 0 -- -- 82
2019-04-17 01:00:00 9.4 10 Nordeste 21 Nordeste 0 -- -- 80
2019-04-17 00:00:00 10.5 6 Nordeste 20 Sudeste 0 -- -- 73
2019-04-16 23:00:00 11.8 7 Sudeste 23 Este 0 -- -- 68
2019-04-16 22:00:00 13 8 Este 23 Este 0 -- -- 65
2019-04-16 21:00:00 14.5 11 Este 25 Sudeste 0 -- -- 63
2019-04-16 20:00:00 16.5 10 Este 27 Sur 0 -- -- 59
2019-04-16 19:00:00 18.6 12 Este 33 Nordeste 0 -- -- 53
2019-04-16 18:00:00 21 14 Este 32 Sudeste 0 -- -- 46
2019-04-16 17:00:00 22.8 10 Este 30 Este 0 -- -- 42
2019-04-16 16:00:00 23.5 5 Este 14 Sudeste 0 -- -- 29
2019-04-16 15:00:00 21.8 5 Sudeste 17 Este 0 -- -- 33
2019-04-16 14:00:00 20.4 5 Sur 15 Sudeste 0 -- -- 34
2019-04-16 13:00:00 18.7 6 Noroeste 12 Oeste 0 -- -- 43
2019-04-16 12:00:00 16.3 4 Noroeste 9 Norte 0 -- -- 50
2019-04-16 11:00:00 13.9 4 Norte 8 Norte 0 -- -- 61
2019-04-16 10:00:00 11.8 3 Sur 10 Sudoeste 0 -- -- 71
2019-04-16 09:00:00 9.2 5 Sudoeste 11 Sudoeste 0 -- -- 80
2019-04-16 08:00:00 8.3 4 Sudoeste 10 Sudoeste 0 -- -- 80
2019-04-16 07:00:00 8.9 4 Sudoeste 17 Oeste 0 -- -- 78
2019-04-16 06:00:00 10.1 9 Oeste 24 Oeste 0 -- -- 73
2019-04-16 05:00:00 11.2 12 Oeste 23 Sudoeste 0 -- -- 69
2019-04-16 04:00:00 12.3 10 Oeste 21 Oeste 0 -- -- 67
2019-04-16 03:00:00 11.2 4 Oeste 8 Oeste 0 -- -- 80
2019-04-16 02:00:00 11.3 0 Calma 6 Nordeste 0 -- -- 82
2019-04-16 01:00:00 11.2 3 Norte 16 Norte 0 -- -- 82
2019-04-16 00:00:00 11.3 4 Sur 14 Nordeste 0 -- -- 83
2019-04-15 23:00:00 11.8 8 Nordeste 22 Este 0 -- -- 81
2019-04-15 22:00:00 12.8 12 Nordeste 26 Nordeste 0 -- -- 77
2019-04-15 21:00:00 15.1 9 Nordeste 32 Norte 0 -- -- 69
2019-04-15 20:00:00 17.8 10 Nordeste 26 Nordeste 0 -- -- 60
2019-04-15 19:00:00 20.7 8 Este 26 Sudeste 0 -- -- 51
2019-04-15 18:00:00 22 10 Este 31 Nordeste 0 -- -- 47
2019-04-15 17:00:00 22.1 10 Este 34 Nordeste 0 -- -- 47
2019-04-15 16:00:00 20.7 9 Este 26 Este 0 -- -- 51
2019-04-15 15:00:00 21 10 Este 31 Este 0 -- -- 50
2019-04-15 14:00:00 21.7 13 Nordeste 28 Nordeste 0 -- -- 49
2019-04-15 13:00:00 21.5 10 Este 24 Este 0 -- -- 48
2019-04-15 12:00:00 20 8 Este 29 Sudeste 0 -- -- 51
2019-04-15 11:00:00 17.2 6 Este 24 Nordeste 0 -- -- 58
2019-04-15 10:00:00 13.8 9 Este 21 Este 0 -- -- 70
2019-04-15 09:00:00 11.4 11 Nordeste 20 Nordeste 0 -- -- 78
2019-04-15 08:00:00 11.7 5 Este 12 Nordeste 0 -- -- 78
2019-04-15 07:00:00 11.8 0 Calma 4 Nordeste 0 -- -- 76
2019-04-15 06:00:00 11.8 0 Calma 7 Noroeste 0 -- -- 75
2019-04-15 05:00:00 12.5 4 Norte 6 Norte 0 -- -- 72
2019-04-15 04:00:00 13.1 0 Calma 6 Noroeste 0 -- -- 70
2019-04-15 03:00:00 13.5 4 Oeste 9 Oeste 0 -- -- 68
2019-04-15 02:00:00 13.9 0 Calma 10 Oeste 0 -- -- 66
2019-04-15 01:00:00 14.8 6 Oeste 10 Sudoeste 0 -- -- 62
2019-04-15 00:00:00 15.9 0 Calma 9 Oeste 0 -- -- 57
2019-04-14 23:00:00 17.4 6 Oeste 13 Oeste 0 -- -- 53
2019-04-14 22:00:00 18.2 7 Noroeste 13 Noroeste 0 -- -- 50
2019-04-14 21:00:00 19.8 8 Noroeste 20 Oeste 0 -- -- 46
2019-04-14 20:00:00 21.8 12 Oeste 29 Sudoeste 0 -- -- 41
2019-04-14 19:00:00 22.7 15 Noroeste 33 Oeste 0 -- -- 38
2019-04-14 18:00:00 23.8 16 Noroeste 31 Oeste 0 -- -- 32
2019-04-14 17:00:00 24.1 16 Noroeste 31 Oeste 0 -- -- 29
2019-04-14 16:00:00 23.6 13 Oeste 31 Oeste 0 -- -- 30
2019-04-14 15:00:00 22.6 18 Oeste 45 Oeste 0 -- -- 34
2019-04-14 14:00:00 21.1 14 Oeste 31 Oeste 0 -- -- 38
2019-04-14 13:00:00 19.3 10 Oeste 22 Oeste 0 -- -- 44
2019-04-14 12:00:00 16.7 9 Oeste 22 Oeste 0 -- -- 49
2019-04-14 11:00:00 14.5 9 Oeste 19 Oeste 0 -- -- 52
2019-04-14 10:00:00 11.5 8 Oeste 18 Oeste 0 -- -- 61
2019-04-14 09:00:00 8.6 7 Oeste 12 Oeste 0 -- -- 69
2019-04-14 08:00:00 7.3 6 Oeste 12 Sudoeste 0 -- -- 72
2019-04-14 07:00:00 7.3 3 Oeste 8 Sudoeste 0 -- -- 70
2019-04-14 06:00:00 7.8 4 Oeste 12 Oeste 0 -- -- 68
2019-04-14 05:00:00 8 4 Oeste 7 Sudoeste 0 -- -- 67
2019-04-14 04:00:00 8 3 Oeste 12 Noroeste 0 -- -- 62
2019-04-14 03:00:00 8.9 8 Oeste 14 Oeste 0 -- -- 57
2019-04-14 02:00:00 9.6 3 Sudoeste 9 Oeste 0 -- -- 46
2019-04-14 01:00:00 10.6 8 Oeste 13 Oeste 0 -- -- 41
2019-04-14 00:00:00 11.7 2 Sudoeste 9 Oeste 0 -- -- 37
2019-04-13 23:00:00 13.4 4 Sudoeste 12 Oeste 0 -- -- 32
2019-04-13 22:00:00 15.3 6 Oeste 16 Oeste 0 -- -- 28
2019-04-13 21:00:00 17.3 11 Oeste 22 Oeste 0 -- -- 24
2019-04-13 20:00:00 19.1 13 Oeste 31 Oeste 0 -- -- 22
2019-04-13 19:00:00 20.2 14 Oeste 32 Oeste 0 -- -- 19
2019-04-13 18:00:00 21.8 11 Noroeste 26 Noroeste 0 -- -- 19
2019-04-13 17:00:00 22.3 11 Noroeste 26 Noroeste 0 -- -- 17
2019-04-13 16:00:00 21.6 13 Noroeste 31 Noroeste 0 -- -- 20
2019-04-13 15:00:00 20.7 10 Noroeste 28 Noroeste 0 -- -- 22
2019-04-13 14:00:00 19.7 12 Noroeste 34 Noroeste 0 -- -- 24
2019-04-13 13:00:00 17.1 8 Sudoeste 17 Oeste 0 -- -- 36
2019-04-13 12:00:00 14.1 8 Oeste 16 Oeste 0 -- -- 42
2019-04-13 11:00:00 11.1 4 Sudoeste 17 Oeste 0 -- -- 50
2019-04-13 10:00:00 7.9 5 Oeste 17 Oeste 0 -- -- 63
2019-04-13 09:00:00 4.8 7 Oeste 11 Oeste 0 -- -- 73
2019-04-13 08:00:00 3.5 5 Oeste 10 Oeste 0 -- -- 75
2019-04-13 07:00:00 4 5 Oeste 10 Oeste 0 -- -- 73
2019-04-13 06:00:00 4.4 4 Sudoeste 10 Oeste 0 -- -- 73
2019-04-13 05:00:00 4.9 2 Sudoeste 8 Noroeste 0 -- -- 72
2019-04-13 04:00:00 5.6 3 Oeste 8 Oeste 0 -- -- 69
2019-04-13 03:00:00 7.1 0 Calma 4 Sur 0 -- -- 62
2019-04-13 02:00:00 8.1 2 Sudoeste 10 Oeste 0 -- -- 59
2019-04-13 01:00:00 8.8 3 Sudoeste 5 Sudoeste 0 -- -- 58
2019-04-13 00:00:00 10.2 2 Sudoeste 6 Sur 0 -- -- 52
2019-04-12 23:00:00 11.5 0 Calma 11 Oeste 0 -- -- 46
2019-04-12 22:00:00 12.7 7 Oeste 14 Noroeste 0 -- -- 42
2019-04-12 21:00:00 14.2 7 Oeste 21 Noroeste 0 -- -- 39
2019-04-12 20:00:00 16 13 Noroeste 29 Noroeste 0 -- -- 35
2019-04-12 19:00:00 17 16 Noroeste 33 Oeste 0 -- -- 32
2019-04-12 18:00:00 18.5 15 Noroeste 31 Sudoeste 0 -- -- 30
2019-04-12 17:00:00 18.4 10 Oeste 30 Oeste 0 -- -- 32
2019-04-12 16:00:00 18.1 10 Noroeste 23 Noroeste 0 -- -- 32
2019-04-12 15:00:00 16.5 10 Oeste 25 Sudoeste 0 -- -- 36
2019-04-12 14:00:00 14.9 11 Oeste 30 Oeste 0 -- -- 41
2019-04-12 13:00:00 14.3 12 Noroeste 26 Noroeste 0 -- -- 44
2019-04-12 12:00:00 12.6 11 Noroeste 21 Noroeste 0 -- -- 50
2019-04-12 11:00:00 9.8 8 Noroeste 17 Oeste 0 -- -- 59
2019-04-12 10:00:00 6.1 7 Oeste 14 Oeste 0 -- -- 73
2019-04-12 09:00:00 3.3 4 Sudoeste 12 Oeste 0 -- -- 83
2019-04-12 08:00:00 2.2 7 Oeste 14 Oeste 0 -- -- 84
2019-04-12 07:00:00 2.8 6 Oeste 12 Oeste 0 -- -- 81
2019-04-12 06:00:00 3.5 5 Oeste 9 Oeste 0 -- -- 79
2019-04-12 05:00:00 4 6 Oeste 11 Oeste 0 -- -- 78
2019-04-12 04:00:00 5.2 5 Oeste 9 Oeste 0 -- -- 74
2019-04-12 03:00:00 6.3 4 Noroeste 5 Noroeste 0 -- -- 68
2019-04-12 02:00:00 7.3 0 Calma 9 Nordeste 0 -- -- 65
2019-04-12 01:00:00 8.1 6 Nordeste 13 Nordeste 0 -- -- 64
2019-04-12 00:00:00 9.3 5 Nordeste 13 Nordeste 0 -- -- 57
2019-04-11 23:00:00 10.5 4 Nordeste 13 Norte 0 -- -- 56
2019-04-11 22:00:00 12 6 Oeste 23 Oeste 0 -- -- 48
2019-04-11 21:00:00 12.3 11 Oeste 27 Noroeste 0 -- -- 43
2019-04-11 20:00:00 13.1 4 Oeste 21 Norte 0 -- -- 47
2019-04-11 19:00:00 13.9 13 Nordeste 27 Nordeste 0 -- -- 48
2019-04-11 18:00:00 16.3 14 Norte 30 Norte 0 -- -- 40
2019-04-11 17:00:00 16.7 8 Norte 35 Oeste 0 -- -- 33
2019-04-11 16:00:00 17.2 12 Norte 26 Oeste 0 -- -- 33
2019-04-11 15:00:00 16.3 13 Noroeste 26 Norte 0 -- -- 38
2019-04-11 14:00:00 15.6 12 Noroeste 26 Noroeste 0 -- -- 41
2019-04-11 13:00:00 14.6 9 Noroeste 23 Noroeste 0 -- -- 43
2019-04-11 12:00:00 12.8 10 Norte 22 Norte 0 -- -- 50
2019-04-11 11:00:00 9.3 12 Noroeste 21 Noroeste 0 -- -- 65
2019-04-11 10:00:00 5.9 6 Oeste 16 Oeste 0 -- -- 86
2019-04-11 09:00:00 3 5 Oeste 14 Oeste 0 -- -- 91
2019-04-11 08:00:00 2.2 7 Oeste 11 Oeste 0 -- -- 91
2019-04-11 07:00:00 2.5 7 Oeste 12 Oeste 0 -- -- 90
2019-04-11 06:00:00 3.1 6 Oeste 10 Sudoeste 0 -- -- 89
2019-04-11 05:00:00 3.9 6 Oeste 9 Oeste 0 -- -- 88
2019-04-11 04:00:00 4.6 4 Oeste 9 Oeste 0 -- -- 86
2019-04-11 03:00:00 5 4 Oeste 9 Oeste 0 -- -- 85
2019-04-11 02:00:00 5.6 5 Oeste 9 Oeste 0 -- -- 83
2019-04-11 01:00:00 6.2 2 Sudoeste 8 Sudoeste 0 -- -- 82
2019-04-11 00:00:00 6.4 5 Oeste 9 Oeste 0 -- -- 81
2019-04-10 23:00:00 7.7 4 Sudoeste 17 Oeste 0 -- -- 74
2019-04-10 22:00:00 8.6 8 Oeste 16 Oeste 0 -- -- 65
2019-04-10 21:00:00 9.2 7 Oeste 24 Noroeste 0 -- -- 62
2019-04-10 20:00:00 11 14 Noroeste 31 Noroeste 0 -- -- 54
2019-04-10 19:00:00 12.2 14 Noroeste 31 Noroeste 0 -- -- 50
2019-04-10 18:00:00 12.4 15 Norte 43 Norte 0 -- -- 49
2019-04-10 17:00:00 14.7 22 Norte 39 Norte 0 -- -- 42
2019-04-10 16:00:00 15.1 21 Noroeste 44 Noroeste 0 -- -- 39
2019-04-10 15:00:00 14.7 22 Noroeste 41 Oeste 0 -- -- 42
2019-04-10 14:00:00 13.3 23 Noroeste 43 Noroeste 0 -- -- 50
2019-04-10 13:00:00 11.7 20 Noroeste 41 Noroeste 0 -- -- 60
2019-04-10 12:00:00 9.6 19 Noroeste 36 Noroeste 0 -- -- 73
2019-04-10 11:00:00 8.5 23 Noroeste 41 Noroeste 0 -- -- 78
2019-04-10 10:00:00 7.2 15 Oeste 30 Noroeste 0 -- -- 87
2019-04-10 09:00:00 6 13 Oeste 27 Noroeste 0 -- -- 90
2019-04-10 08:00:00 5.5 10 Oeste 24 Oeste 0 -- -- 89
2019-04-10 07:00:00 5.8 12 Oeste 26 Oeste 0 -- -- 88
2019-04-10 06:00:00 5.8 10 Oeste 24 Noroeste 0 -- -- 88
2019-04-10 05:00:00 6.2 13 Oeste 26 Oeste 0 -- -- 87
2019-04-10 04:00:00 6.2 10 Oeste 21 Oeste 0 -- -- 87
2019-04-10 03:00:00 6.6 10 Oeste 23 Oeste 0 -- -- 87
2019-04-10 02:00:00 6.4 12 Oeste 23 Oeste 0 -- -- 88
2019-04-10 01:00:00 5.6 9 Oeste 14 Sudoeste 0 -- -- 88
2019-04-10 00:00:00 5.8 5 Oeste 9 Oeste 0 -- -- 85
2019-04-09 23:00:00 6.4 6 Oeste 17 Oeste 0 -- -- 82
2019-04-09 22:00:00 7 10 Oeste 15 Oeste 0 -- -- 79
2019-04-09 21:00:00 7.3 9 Oeste 34 Oeste 0 -- -- 80
2019-04-09 20:00:00 7.3 13 Oeste 46 Noroeste 2.6 -- -- 81
2019-04-09 19:00:00 11 23 Oeste 42 Oeste 0 -- -- 63
2019-04-09 18:00:00 10.1 16 Oeste 50 Noroeste 0.4 -- -- 78
2019-04-09 17:00:00 12.1 22 Oeste 41 Oeste 0 -- -- 60
2019-04-09 16:00:00 11.1 7 Oeste 41 Noroeste 0.6 -- -- 74
2019-04-09 15:00:00 11.5 23 Noroeste 48 Noroeste 0 -- -- 63
2019-04-09 14:00:00 11.5 20 Oeste 37 Oeste 0 -- -- 54
2019-04-09 13:00:00 10.4 18 Oeste 36 Noroeste 0 -- -- 62
2019-04-09 12:00:00 10 22 Noroeste 40 Oeste 0 -- -- 65
2019-04-09 11:00:00 8.8 14 Oeste 41 Oeste 0 -- -- 75
2019-04-09 10:00:00 7.3 15 Oeste 28 Oeste 0 -- -- 81
2019-04-09 09:00:00 6.5 12 Oeste 25 Noroeste 0 -- -- 86
2019-04-09 08:00:00 6.1 10 Oeste 22 Oeste 0 -- -- 86
2019-04-09 07:00:00 6.6 10 Oeste 23 Oeste 0 -- -- 84
2019-04-09 06:00:00 7 11 Oeste 29 Oeste 0 -- -- 80
2019-04-09 05:00:00 7.4 12 Oeste 26 Oeste 0 -- -- 76
2019-04-09 04:00:00 8.1 14 Oeste 30 Oeste 0 -- -- 74
2019-04-09 03:00:00 8.9 12 Oeste 23 Oeste 0 -- -- 80
2019-04-09 02:00:00 9.6 12 Oeste 32 Oeste 0 -- -- 80
2019-04-09 01:00:00 9.6 14 Oeste 27 Oeste 0 -- -- 78
2019-04-09 00:00:00 9.9 11 Oeste 33 Oeste 0 -- -- 76
2019-04-08 23:00:00 11 16 Oeste 32 Oeste 0 -- -- 80
2019-04-08 22:00:00 10.9 13 Oeste 26 Oeste 0 -- -- 81
2019-04-08 21:00:00 11.4 12 Oeste 24 Oeste 0 -- -- 80
2019-04-08 20:00:00 12 14 Oeste 35 Sudoeste 0 -- -- 78
2019-04-08 19:00:00 12 8 Oeste 46 Oeste 1 -- -- 76
2019-04-08 18:00:00 15.1 12 Oeste 34 Oeste 0 -- -- 61
2019-04-08 17:00:00 15.1 15 Oeste 41 Oeste 0 -- -- 63
2019-04-08 16:00:00 16.8 22 Oeste 43 Noroeste 0 -- -- 49
2019-04-08 15:00:00 16.1 19 Oeste 40 Oeste 0 -- -- 57
2019-04-08 14:00:00 14.5 20 Noroeste 36 Noroeste 0.2 -- -- 65
2019-04-08 13:00:00 13.1 21 Oeste 36 Oeste 0 -- -- 73
2019-04-08 12:00:00 12.4 17 Oeste 37 Oeste 0 -- -- 74
2019-04-08 11:00:00 11.7 18 Oeste 36 Oeste 0 -- -- 82
2019-04-08 10:00:00 9.6 9 Oeste 18 Oeste 0.2 -- -- 91
2019-04-08 09:00:00 9 9 Oeste 17 Sudoeste 0.2 -- -- 89
2019-04-08 08:00:00 9.1 7 Oeste 15 Oeste 0 -- -- 86
2019-04-08 07:00:00 9.5 9 Oeste 27 Oeste 0 -- -- 85
2019-04-08 06:00:00 9.4 12 Oeste 22 Sudoeste 0 -- -- 88
2019-04-08 05:00:00 8.4 6 Oeste 13 Sudoeste 0 -- -- 90
2019-04-08 04:00:00 8.6 7 Oeste 15 Oeste 0 -- -- 86
2019-04-08 03:00:00 8.9 7 Oeste 16 Oeste 0 -- -- 81
2019-04-08 02:00:00 8.9 6 Oeste 15 Sudoeste 0 -- -- 78
2019-04-08 01:00:00 9.2 8 Oeste 16 Oeste 0 -- -- 76
2019-04-08 00:00:00 9.7 9 Oeste 16 Oeste 0 -- -- 69
2019-04-07 23:00:00 9.6 7 Oeste 21 Oeste 0 -- -- 69
2019-04-07 22:00:00 10.1 9 Oeste 26 Oeste 0 -- -- 65
2019-04-07 21:00:00 10.8 12 Oeste 28 Oeste 0 -- -- 60
2019-04-07 20:00:00 11.4 17 Noroeste 36 Oeste 0 -- -- 57
2019-04-07 19:00:00 12.1 17 Oeste 40 Noroeste 0 -- -- 52
2019-04-07 18:00:00 13.9 25 Noroeste 43 Noroeste 0 -- -- 40
2019-04-07 17:00:00 14.1 24 Noroeste 41 Noroeste 0 -- -- 42
2019-04-07 16:00:00 13.6 22 Noroeste 45 Noroeste 0 -- -- 45
2019-04-07 15:00:00 12.2 25 Noroeste 49 Noroeste 0 -- -- 48
2019-04-07 14:00:00 10.7 21 Noroeste 39 Noroeste 0 -- -- 52
2019-04-07 13:00:00 9.8 19 Noroeste 42 Oeste 0 -- -- 59
2019-04-07 12:00:00 8.9 22 Noroeste 41 Noroeste 0 -- -- 64
2019-04-07 11:00:00 7.1 24 Noroeste 43 Noroeste 0 -- -- 71
2019-04-07 10:00:00 5.9 19 Noroeste 34 Oeste 0 -- -- 82
2019-04-07 09:00:00 4.5 9 Oeste 17 Oeste 0 -- -- 88
2019-04-07 08:00:00 4.1 10 Oeste 36 Oeste 0 -- -- 87
2019-04-07 07:00:00 4.5 16 Oeste 30 Oeste 0 -- -- 85
2019-04-07 06:00:00 4.1 12 Oeste 21 Oeste 0 -- -- 86
2019-04-07 05:00:00 3.6 4 Oeste 12 Oeste 0 -- -- 85
2019-04-07 04:00:00 3.8 6 Oeste 20 Oeste 0 -- -- 84
2019-04-07 03:00:00 4.3 12 Oeste 22 Oeste 0.2 -- -- 82
2019-04-07 02:00:00 4.9 12 Oeste 31 Oeste 0 -- -- 79
2019-04-07 01:00:00 5.3 18 Oeste 32 Oeste 0 -- -- 78
2019-04-07 00:00:00 5.2 13 Oeste 29 Oeste 0 -- -- 79
2019-04-06 23:00:00 5.3 12 Oeste 31 Oeste 0 -- -- 80
2019-04-06 22:00:00 6 18 Oeste 31 Oeste 0 -- -- 79
2019-04-06 21:00:00 6.6 13 Oeste 31 Oeste 0 -- -- 73
2019-04-06 20:00:00 6.6 15 Oeste 42 Oeste 0.4 -- -- 78
2019-04-06 19:00:00 8.3 15 Oeste 47 Oeste 0.2 -- -- 68
2019-04-06 18:00:00 7.6 13 Oeste 38 Oeste 1.6 -- -- 74
2019-04-06 17:00:00 10.2 19 Oeste 53 Oeste 0 -- -- 62
2019-04-06 16:00:00 9.1 26 Oeste 50 Oeste 0.6 -- -- 65
2019-04-06 15:00:00 9.7 21 Oeste 55 Oeste 0.2 -- -- 63
2019-04-06 14:00:00 7.1 23 Oeste 49 Oeste 0.2 -- -- 77
2019-04-06 13:00:00 9.5 22 Oeste 45 Oeste 0 -- -- 63
2019-04-06 12:00:00 8.7 21 Oeste 45 Oeste 0 -- -- 68
2019-04-06 11:00:00 7.6 22 Oeste 41 Oeste 0 -- -- 71
2019-04-06 10:00:00 5.7 22 Oeste 40 Oeste 0 -- -- 79
2019-04-06 09:00:00 4.6 22 Oeste 41 Oeste 0 -- -- 81
2019-04-06 08:00:00 4.1 15 Oeste 33 Oeste 0 -- -- 82
2019-04-06 07:00:00 4.4 17 Oeste 32 Sudoeste 0 -- -- 83
2019-04-06 06:00:00 4.4 13 Oeste 28 Oeste 0 -- -- 83
2019-04-06 05:00:00 4.2 11 Oeste 32 Oeste 0 -- -- 84
2019-04-06 04:00:00 4.2 18 Oeste 37 Oeste 0 -- -- 83
2019-04-06 03:00:00 4.4 18 Oeste 41 Oeste 0 -- -- 81
2019-04-06 02:00:00 3.5 11 Oeste 19 Oeste 0 -- -- 83
2019-04-06 01:00:00 3.5 10 Oeste 18 Oeste 0 -- -- 83
2019-04-06 00:00:00 4.4 9 Oeste 23 Oeste 0 -- -- 79
2019-04-05 23:00:00 4.6 10 Oeste 25 Oeste 0 -- -- 80
2019-04-05 22:00:00 5 12 Oeste 29 Sudoeste 0.2 -- -- 83
2019-04-05 21:00:00 5.2 13 Oeste 35 Sudoeste 0.2 -- -- 78
2019-04-05 20:00:00 7 13 Oeste 28 Oeste 0 -- -- 79
2019-04-05 19:00:00 6.5 9 Sudoeste 21 Sudoeste 0.4 -- -- 86
2019-04-05 18:00:00 5.6 15 Oeste 48 Noroeste 0.8 -- -- 83
2019-04-05 17:00:00 8.3 8 Oeste 26 Noroeste 0 -- -- 77
2019-04-05 16:00:00 7.7 9 Sudoeste 26 Sudoeste 0.4 -- -- 75
2019-04-05 15:00:00 8.1 8 Sudoeste 23 Sudoeste 1.4 -- -- 81
2019-04-05 14:00:00 9.6 16 Noroeste 32 Oeste 0.2 -- -- 74
2019-04-05 13:00:00 11.8 11 Oeste 28 Oeste 0 -- -- 52
2019-04-05 12:00:00 11.2 12 Sudoeste 38 Oeste 0 -- -- 53
2019-04-05 11:00:00 10.4 17 Oeste 37 Oeste 0 -- -- 54
2019-04-05 10:00:00 9.6 12 Sudoeste 27 Sudoeste 0 -- -- 59
2019-04-05 09:00:00 7.6 14 Oeste 30 Oeste 0 -- -- 66
2019-04-05 08:00:00 7.2 10 Oeste 22 Oeste 0 -- -- 66
2019-04-05 07:00:00 7.3 10 Sudoeste 24 Oeste 0 -- -- 68
2019-04-05 06:00:00 7.9 14 Oeste 31 Sudoeste 0 -- -- 68
2019-04-05 05:00:00 8.1 12 Sudoeste 32 Sudoeste 0 -- -- 72
2019-04-05 04:00:00 8.5 13 Sudoeste 35 Sudoeste 0 -- -- 73
2019-04-05 03:00:00 7.9 15 Sur 33 Sur 0 -- -- 79
2019-04-05 02:00:00 8 12 Sur 35 Sudoeste 0 -- -- 77
2019-04-05 01:00:00 8.5 16 Sur 35 Sur 0 -- -- 76
2019-04-05 00:00:00 8.9 12 Sur 27 Sur 0 -- -- 74
2019-04-04 23:00:00 9.5 9 Sur 33 Sur 0 -- -- 70
2019-04-04 22:00:00 10.2 15 Sur 27 Sur 0 -- -- 63
2019-04-04 21:00:00 11.5 3 Noroeste 12 Oeste 0 -- -- 42
2019-04-04 20:00:00 13 6 Oeste 18 Oeste 0 -- -- 35
2019-04-04 19:00:00 13.6 10 Sudoeste 22 Oeste 0 -- -- 33
2019-04-04 18:00:00 15.2 9 Oeste 23 Noroeste 0 -- -- 30
2019-04-04 17:00:00 15.5 8 Noroeste 28 Oeste 0 -- -- 28
2019-04-04 16:00:00 14.6 12 Oeste 30 Oeste 0 -- -- 29
2019-04-04 15:00:00 13.7 12 Oeste 27 Oeste 0 -- -- 31
2019-04-04 14:00:00 12.6 13 Noroeste 23 Noroeste 0 -- -- 32
2019-04-04 13:00:00 11.5 8 Oeste 24 Noroeste 0 -- -- 35
2019-04-04 12:00:00 10 7 Noroeste 18 Noroeste 0 -- -- 35
2019-04-04 11:00:00 8.2 10 Noroeste 19 Oeste 0 -- -- 43
2019-04-04 10:00:00 5.4 4 Sudoeste 11 Sudoeste 0 -- -- 73
2019-04-04 09:00:00 2.5 5 Sudoeste 10 Oeste 0 -- -- 84
2019-04-04 08:00:00 2 4 Oeste 6 Oeste 0 -- -- 84
2019-04-04 07:00:00 2.9 3 Oeste 6 Sudoeste 0 -- -- 82
2019-04-04 06:00:00 3.9 0 Calma 3 Oeste 0 -- -- 79
2019-04-04 05:00:00 4.4 3 Noroeste 5 Oeste 0 -- -- 76
2019-04-04 04:00:00 5.2 0 Calma 11 Nordeste 0 -- -- 72
2019-04-04 03:00:00 6.3 3 Este 18 Norte 0 -- -- 73
2019-04-04 02:00:00 8 8 Noroeste 13 Noroeste 0 -- -- 63
2019-04-04 01:00:00 8.7 6 Oeste 9 Oeste 0 -- -- 63
2019-04-04 00:00:00 8.7 3 Oeste 10 Oeste 0 -- -- 60
2019-04-03 23:00:00 9.4 4 Norte 17 Norte 0 -- -- 62
2019-04-03 22:00:00 11.2 9 Norte 32 Noroeste 0 -- -- 58
2019-04-03 21:00:00 13.7 15 Noroeste 37 Noroeste 0 -- -- 41
2019-04-03 20:00:00 15.5 19 Oeste 44 Oeste 0 -- -- 36
2019-04-03 19:00:00 17 26 Oeste 48 Oeste 0 -- -- 32
2019-04-03 18:00:00 17.2 17 Oeste 45 Oeste 0 -- -- 38
2019-04-03 17:00:00 17.3 15 Oeste 41 Oeste 0 -- -- 42
2019-04-03 16:00:00 16.8 19 Oeste 44 Oeste 0 -- -- 43
2019-04-03 15:00:00 17.3 20 Oeste 44 Sudoeste 0 -- -- 43
2019-04-03 14:00:00 16 19 Oeste 41 Oeste 0 -- -- 49
2019-04-03 13:00:00 15.4 22 Oeste 39 Oeste 0 -- -- 55
2019-04-03 12:00:00 14.2 12 Oeste 26 Oeste 0 -- -- 71
2019-04-03 11:00:00 11 7 Oeste 17 Oeste 0 -- -- 83
2019-04-03 10:00:00 8.8 5 Oeste 12 Oeste 0 -- -- 90
2019-04-03 09:00:00 6.9 5 Oeste 9 Oeste 0 -- -- 91
2019-04-03 08:00:00 6.4 5 Oeste 9 Sudoeste 0 -- -- 91
2019-04-03 07:00:00 5.9 4 Oeste 6 Oeste 0 -- -- 91
2019-04-03 06:00:00 6.3 2 Oeste 5 Oeste 0 -- -- 90
2019-04-03 05:00:00 6.8 3 Oeste 5 Oeste 0 -- -- 89
2019-04-03 04:00:00 7.4 2 Sudoeste 10 Oeste 0 -- -- 89
2019-04-03 03:00:00 8 8 Oeste 14 Oeste 0 -- -- 88
2019-04-03 02:00:00 8.2 6 Oeste 10 Sudoeste 0 -- -- 88
2019-04-03 01:00:00 8.5 2 Sudoeste 4 Oeste 0 -- -- 88
2019-04-03 00:00:00 9 0 Calma 5 Sudoeste 0 -- -- 85
2019-04-02 23:00:00 9.9 3 Sudoeste 12 Norte 0 -- -- 83
2019-04-02 22:00:00 10.8 5 Sudoeste 19 Sur 0 -- -- 78
2019-04-02 21:00:00 11.3 5 Sudoeste 13 Sudoeste 0 -- -- 80
2019-04-02 20:00:00 11.7 5 Sudoeste 16 Noroeste 0 -- -- 82
2019-04-02 19:00:00 11.9 2 Sur 9 Sudeste 0.4 -- -- 82
2019-04-02 18:00:00 12.5 3 Noroeste 31 Norte 3.8 -- -- 75
2019-04-02 17:00:00 17.3 13 Noroeste 30 Oeste 0 -- -- 53
2019-04-02 16:00:00 15.5 15 Oeste 26 Oeste 0 -- -- 66
2019-04-02 15:00:00 15.6 9 Oeste 23 Sudoeste 0 -- -- 67
2019-04-02 14:00:00 14.5 10 Oeste 23 Oeste 0 -- -- 72
2019-04-02 13:00:00 13.1 11 Noroeste 23 Noroeste 0 -- -- 84
2019-04-02 12:00:00 11.3 8 Oeste 17 Oeste 0 -- -- 96
2019-04-02 11:00:00 8.8 4 Sudoeste 7 Sudoeste 0 -- -- 96
2019-04-02 10:00:00 7.3 3 Oeste 10 Oeste 0 -- -- 96
2019-04-02 09:00:00 6.7 4 Sudoeste 6 Sur 0 -- -- 95
2019-04-02 08:00:00 5.9 0 Calma 10 Norte 0 -- -- 95
2019-04-02 07:00:00 6 2 Noroeste 7 Norte 0 -- -- 95
2019-04-02 06:00:00 6.2 0 Calma 3 Oeste 0 -- -- 95
2019-04-02 05:00:00 6.1 3 Sur 4 Sur 0 -- -- 95
2019-04-02 04:00:00 6.8 0 Calma 4 Sudeste 0.2 -- -- 94
2019-04-02 03:00:00 7.3 0 Calma 9 Norte 0 -- -- 93
2019-04-02 02:00:00 7.8 0 Calma 4 Este 0 -- -- 94
2019-04-02 01:00:00 8 0 Calma 8 Oeste 0 -- -- 93
2019-04-02 00:00:00 8.4 0 Calma 10 Nordeste 0 -- -- 92
2019-04-01 23:00:00 9.1 3 Este 12 Este 0 -- -- 92
2019-04-01 22:00:00 9.5 6 Nordeste 13 Nordeste 0 -- -- 91
2019-04-01 21:00:00 9.8 5 Este 17 Sudeste 0.4 -- -- 89
2019-04-01 20:00:00 11.1 5 Sudeste 21 Nordeste 0.8 -- -- 85
2019-04-01 19:00:00 12.1 12 Nordeste 21 Nordeste 0 -- -- 82
2019-04-01 18:00:00 13.6 4 Sudeste 14 Sudeste 0 -- -- 74
2019-04-01 17:00:00 13.2 5 Este 22 Nordeste 0 -- -- 80
2019-04-01 16:00:00 12.8 8 Nordeste 22 Nordeste 0 -- -- 81
2019-04-01 15:00:00 13 9 Nordeste 22 Este 0 -- -- 81
2019-04-01 14:00:00 12.7 8 Este 19 Sudeste 0 -- -- 86
2019-04-01 13:00:00 11.5 8 Este 18 Sudeste 0 -- -- 93
2019-04-01 12:00:00 10.3 5 Este 12 Este 0.2 -- -- 94
2019-04-01 11:00:00 9.5 4 Este 17 Este 0.2 -- -- 95
2019-04-01 10:00:00 9.1 5 Este 13 Este 0.2 -- -- 95
2019-04-01 09:00:00 8.8 3 Este 10 Este 0 -- -- 95
2019-04-01 08:00:00 8.7 3 Este 8 Este 0.8 -- -- 95
2019-04-01 07:00:00 8.6 2 Este 12 Este 0 -- -- 95
2019-04-01 06:00:00 8.6 4 Sudeste 8 Este 0.2 -- -- 95
2019-04-01 05:00:00 8.5 3 Nordeste 8 Este 0 -- -- 94
2019-04-01 04:00:00 8.5 4 Nordeste 11 Este 0.2 -- -- 94
2019-04-01 03:00:00 8.5 6 Nordeste 13 Nordeste 0.2 -- -- 94
2019-04-01 02:00:00 8.5 2 Este 8 Sudeste 0 -- -- 94
2019-04-01 01:00:00 8.5 3 Este 9 Nordeste 0 -- -- 94
2019-04-01 00:00:00 8.5 4 Este 10 Este 0.2 -- -- 94
2019-03-31 23:00:00 8.4 3 Sudeste 14 Sudeste 0 -- -- 94
2019-03-31 22:00:00 8.4 4 Este 19 Este 0 -- -- 94
2019-03-31 21:00:00 8.4 8 Este 24 Sudeste 0.2 -- -- 93
2019-03-31 20:00:00 8.6 7 Este 25 Este 0.2 -- -- 93
2019-03-31 19:00:00 8.7 8 Este 22 Sudeste 0.2 -- -- 93
2019-03-31 18:00:00 8.9 9 Este 26 Sudeste 0.4 -- -- 92
2019-03-31 17:00:00 9.1 8 Este 26 Sudeste 1.2 -- -- 93
2019-03-31 16:00:00 8.6 10 Este 26 Este 0.4 -- -- 92
2019-03-31 15:00:00 8.4 9 Este 28 Este 0.4 -- -- 92
2019-03-31 14:00:00 8.6 8 Este 19 Este 0.6 -- -- 93
2019-03-31 13:00:00 7.5 9 Nordeste 19 Nordeste 0.2 -- -- 93
2019-03-31 12:00:00 6.9 10 Nordeste 22 Nordeste 0.2 -- -- 92
2019-03-31 11:00:00 6.7 13 Nordeste 26 Este 1.4 -- -- 92
2019-03-31 10:00:00 6.5 12 Nordeste 26 Este 2.2 -- -- 92
2019-03-31 09:00:00 6.5 11 Nordeste 24 Este 1 -- -- 91
2019-03-31 08:00:00 6.9 9 Nordeste 20 Nordeste 2.4 -- -- 90
2019-03-31 07:00:00 7 9 Nordeste 24 Nordeste 1.6 -- -- 87
2019-03-31 06:00:00 7.7 9 Este 19 Este 0 -- -- 79
2019-03-31 05:00:00 7.9 5 Este 15 Este 0 -- -- 77
2019-03-31 03:00:00 7.4 8 Sudeste 17 Este 0 -- -- 77
2019-03-31 01:00:00 7.1 5 Este 17 Nordeste 0 -- -- 71
2019-03-31 00:00:00 7.2 8 Nordeste 23 Nordeste 0 -- -- 66
2019-03-30 23:00:00 8 12 Nordeste 32 Este 0 -- -- 65
2019-03-30 22:00:00 8.8 9 Este 23 Sudeste 0 -- -- 67
2019-03-30 21:00:00 9.6 9 Este 26 Este 0 -- -- 64
2019-03-30 20:00:00 10.7 9 Este 26 Sudeste 0 -- -- 68
2019-03-30 19:00:00 11.9 11 Este 30 Sudeste 0 -- -- 62
2019-03-30 18:00:00 13.4 12 Este 29 Nordeste 0 -- -- 57
2019-03-30 17:00:00 15.5 12 Este 33 Sudeste 0 -- -- 50
2019-03-30 16:00:00 16.8 10 Este 33 Este 0 -- -- 44
2019-03-30 15:00:00 17 11 Este 30 Este 0 -- -- 42
2019-03-30 14:00:00 16.7 9 Este 28 Sudeste 0 -- -- 42
2019-03-30 13:00:00 15.6 12 Sudeste 24 Sudeste 0 -- -- 46
2019-03-30 12:00:00 14.2 9 Este 24 Este 0 -- -- 49
2019-03-30 11:00:00 12 8 Este 22 Sudeste 0 -- -- 58
2019-03-30 10:00:00 9.3 9 Este 22 Este 0 -- -- 70
2019-03-30 09:00:00 7.3 5 Este 13 Este 0 -- -- 83
2019-03-30 08:00:00 5.1 3 Este 12 Este 0 -- -- 90
2019-03-30 07:00:00 4 4 Nordeste 12 Nordeste 0 -- -- 89
2019-03-30 06:00:00 3.8 8 Nordeste 16 Nordeste 0 -- -- 87
2019-03-30 05:00:00 4 3 Este 12 Nordeste 0 -- -- 86
2019-03-30 04:00:00 3.6 4 Nordeste 8 Nordeste 0 -- -- 83
2019-03-30 03:00:00 4.6 3 Nordeste 6 Este 0 -- -- 83
2019-03-30 02:00:00 5.1 2 Este 7 Este 0 -- -- 82
2019-03-30 01:00:00 5.9 3 Este 9 Este 0 -- -- 78
2019-03-30 00:00:00 5.7 4 Nordeste 13 Nordeste 0 -- -- 69
2019-03-29 23:00:00 6.2 6 Nordeste 15 Este 0 -- -- 58
2019-03-29 22:00:00 8.2 8 Sudeste 26 Sudeste 0 -- -- 54
2019-03-29 21:00:00 9.1 9 Este 21 Sudeste 0 -- -- 50
2019-03-29 20:00:00 10.2 6 Este 25 Sudeste 0 -- -- 48
2019-03-29 19:00:00 11.8 11 Este 33 Sudeste 0 -- -- 52
2019-03-29 18:00:00 13.5 13 Este 31 Este 0 -- -- 48
2019-03-29 17:00:00 14.8 14 Este 30 Sudeste 0 -- -- 42
2019-03-29 16:00:00 16.2 12 Este 28 Sudeste 0 -- -- 39
2019-03-29 15:00:00 16.2 12 Este 31 Sudeste 0 -- -- 37
2019-03-29 14:00:00 16.8 14 Sudeste 33 Sudeste 0 -- -- 35
2019-03-29 13:00:00 16.7 12 Sudeste 30 Sudeste 0 -- -- 33
2019-03-29 12:00:00 15.4 10 Este 26 Sudeste 0 -- -- 38
2019-03-29 11:00:00 13.7 13 Sudeste 25 Sudeste 0 -- -- 42
2019-03-29 10:00:00 11.2 9 Este 22 Sudeste 0 -- -- 51
2019-03-29 09:00:00 6.7 5 Este 15 Este 0 -- -- 79
2019-03-29 08:00:00 2.7 5 Nordeste 11 Nordeste 0 -- -- 87
2019-03-29 07:00:00 1.3 3 Este 7 Este 0 -- -- 81
2019-03-29 06:00:00 2.4 2 Este 6 Nordeste 0 -- -- 82
2019-03-29 05:00:00 2.8 3 Sudeste 9 Este 0 -- -- 80
2019-03-29 04:00:00 3.8 3 Este 12 Este 0 -- -- 78
2019-03-29 03:00:00 3.9 6 Nordeste 13 Nordeste 0 -- -- 69
2019-03-29 02:00:00 3.9 4 Nordeste 9 Nordeste 0 -- -- 58
2019-03-29 01:00:00 5.6 3 Nordeste 9 Nordeste 0 -- -- 50
2019-03-29 00:00:00 6.6 6 Nordeste 9 Nordeste 0 -- -- 48
2019-03-28 23:00:00 8.1 3 Este 11 Este 0 -- -- 44
2019-03-28 22:00:00 9.2 4 Este 12 Sur 0 -- -- 39
2019-03-28 21:00:00 10.7 4 Nordeste 22 Este 0 -- -- 34
2019-03-28 20:00:00 12.4 14 Sudeste 25 Sudeste 0 -- -- 31
2019-03-28 19:00:00 14.2 10 Sudeste 26 Sudeste 0 -- -- 29
2019-03-28 18:00:00 16.2 14 Sudeste 27 Sudeste 0 -- -- 26
2019-03-28 17:00:00 18 12 Sudeste 30 Este 0 -- -- 22
2019-03-28 16:00:00 18.5 10 Este 28 Sudeste 0 -- -- 21
2019-03-28 15:00:00 18.5 9 Este 27 Este 0 -- -- 23
2019-03-28 14:00:00 18.4 9 Sudeste 27 Sudeste 0 -- -- 23
2019-03-28 13:00:00 17.3 8 Este 28 Sudeste 0 -- -- 23
2019-03-28 12:00:00 16.5 9 Sudeste 22 Sur 0 -- -- 23
2019-03-28 11:00:00 13.2 8 Nordeste 25 Sur 0 -- -- 22
2019-03-28 10:00:00 9.6 4 Sudeste 7 Sudeste 0 -- -- 41
2019-03-28 09:00:00 3.7 3 Nordeste 6 Nordeste 0 -- -- 57
2019-03-28 08:00:00 -0.2 0 Calma 5 Norte 0 -- -- 64
2019-03-28 07:00:00 -0.8 0 Calma 3 Sudeste 0 -- -- 64
2019-03-28 06:00:00 -0.1 0 Calma 2 Norte 0 -- -- 59
2019-03-28 05:00:00 0.4 0 Calma 3 Nordeste 0 -- -- 61
2019-03-28 04:00:00 1.2 2 Este 4 Nordeste 0 -- -- 57
2019-03-28 03:00:00 2.2 0 Calma 4 Noroeste 0 -- -- 54
2019-03-28 02:00:00 2.9 4 Norte 7 Noroeste 0 -- -- 51
2019-03-28 01:00:00 4.4 0 Calma 3 Sur 0 -- -- 49
2019-03-28 00:00:00 5.6 0 Calma 7 Este 0 -- -- 46
2019-03-27 23:00:00 6.7 3 Este 13 Nordeste 0 -- -- 44
2019-03-27 22:00:00 7.3 8 Nordeste 19 Nordeste 0 -- -- 39
2019-03-27 21:00:00 9.3 8 Nordeste 21 Sudeste 0 -- -- 31
2019-03-27 20:00:00 11.6 8 Sudeste 22 Sudeste 0 -- -- 25
2019-03-27 19:00:00 13.6 12 Sudeste 26 Sudeste 0 -- -- 22
2019-03-27 18:00:00 15.2 8 Este 28 Sudeste 0 -- -- 21
2019-03-27 17:00:00 17.1 11 Sudeste 28 Sudeste 0 -- -- 20
2019-03-27 16:00:00 17.3 8 Este 26 Nordeste 0 -- -- 19
2019-03-27 15:00:00 17.8 13 Sudeste 32 Sudeste 0 -- -- 19
2019-03-27 14:00:00 16.7 14 Este 26 Sudeste 0 -- -- 18
2019-03-27 13:00:00 16.2 13 Sudeste 30 Sudeste 0 -- -- 26
2019-03-27 12:00:00 14.1 7 Este 22 Sudeste 0 -- -- 32
2019-03-27 11:00:00 11.5 8 Nordeste 18 Nordeste 0 -- -- 43
2019-03-27 10:00:00 9.5 5 Nordeste 14 Este 0 -- -- 53
2019-03-27 09:00:00 5.7 3 Este 9 Nordeste 0 -- -- 73
2019-03-27 08:00:00 2.5 0 Calma 6 Este 0 -- -- 83
2019-03-27 07:00:00 2 2 Este 6 Nordeste 0 -- -- 81
2019-03-27 06:00:00 2.5 0 Calma 9 Este 0 -- -- 80
2019-03-27 05:00:00 3.1 2 Este 6 Nordeste 0 -- -- 76
2019-03-27 04:00:00 3.8 0 Calma 7 Nordeste 0 -- -- 76
2019-03-27 03:00:00 4.8 3 Nordeste 8 Nordeste 0 -- -- 73
2019-03-27 02:00:00 6 3 Este 19 Nordeste 0 -- -- 70
2019-03-27 01:00:00 7.4 6 Este 26 Sudeste 0 -- -- 66
2019-03-27 00:00:00 8 9 Este 28 Nordeste 0 -- -- 70
2019-03-26 23:00:00 7.9 8 Este 24 Este 0 -- -- 68
2019-03-26 22:00:00 8.1 9 Este 23 Este 0 -- -- 67
2019-03-26 21:00:00 9.6 9 Sudeste 26 Este 0 -- -- 50
2019-03-26 20:00:00 11.6 13 Sudeste 28 Sudeste 0 -- -- 47
2019-03-26 19:00:00 13.2 10 Este 28 Sudeste 0 -- -- 33
2019-03-26 18:00:00 14.8 12 Este 37 Sudeste 0 -- -- 33
2019-03-26 17:00:00 16.9 17 Sudeste 39 Sudeste 0 -- -- 32
2019-03-26 16:00:00 17.8 13 Este 37 Sudeste 0 -- -- 30
2019-03-26 15:00:00 17.9 18 Sudeste 37 Sudeste 0 -- -- 32
2019-03-26 14:00:00 17.5 17 Sudeste 40 Sudeste 0 -- -- 36
2019-03-26 13:00:00 16.7 17 Sudeste 39 Sudeste 0 -- -- 39
2019-03-26 12:00:00 15.7 14 Sudeste 38 Sudeste 0 -- -- 43
2019-03-26 11:00:00 13.8 18 Sudeste 42 Sudeste 0 -- -- 46
2019-03-26 10:00:00 12.3 16 Este 42 Sudeste 0 -- -- 43
2019-03-26 09:00:00 9.3 13 Nordeste 30 Nordeste 0 -- -- 53
2019-03-26 08:00:00 4.7 13 Nordeste 23 Este 0 -- -- 61
2019-03-26 07:00:00 4 13 Nordeste 21 Nordeste 0 -- -- 60
2019-03-26 06:00:00 4.6 4 Este 10 Este 0 -- -- 58
2019-03-26 05:00:00 4.9 3 Este 14 Nordeste 0 -- -- 58
2019-03-26 04:00:00 5.9 2 Este 8 Este 0 -- -- 57
2019-03-26 03:00:00 6.1 2 Este 6 Sudeste 0 -- -- 55
2019-03-26 02:00:00 7 3 Este 8 Nordeste 0 -- -- 54
2019-03-26 01:00:00 8.3 2 Este 12 Nordeste 0 -- -- 51
2019-03-26 00:00:00 9 5 Este 13 Nordeste 0 -- -- 45
2019-03-25 23:00:00 10.8 5 Nordeste 15 Nordeste 0 -- -- 44
2019-03-25 22:00:00 10.7 9 Nordeste 18 Nordeste 0 -- -- 38
2019-03-25 21:00:00 14.3 3 Este 15 Sudeste 0 -- -- 28
2019-03-25 20:00:00 16.2 10 Sudeste 19 Sudeste 0 -- -- 26
2019-03-25 19:00:00 18.2 8 Sudeste 17 Este 0 -- -- 24
2019-03-25 18:00:00 19.8 8 Sudeste 22 Sudeste 0 -- -- 23
2019-03-25 17:00:00 21.3 8 Este 23 Sudeste 0 -- -- 21
2019-03-25 16:00:00 21.6 8 Nordeste 24 Este 0 -- -- 19
2019-03-25 15:00:00 21.9 12 Nordeste 24 Sudeste 0 -- -- 20
2019-03-25 14:00:00 21.2 9 Este 23 Sudeste 0 -- -- 21
2019-03-25 13:00:00 20.8 9 Este 27 Sur 0 -- -- 22
2019-03-25 12:00:00 18.6 8 Este 19 Nordeste 0 -- -- 27
2019-03-25 11:00:00 14.5 4 Norte 10 Norte 0 -- -- 35
2019-03-25 10:00:00 9 2 Sudoeste 5 Sudoeste 0 -- -- 46
2019-03-25 09:00:00 4.3 2 Sudoeste 5 Oeste 0 -- -- 57
2019-03-25 08:00:00 2 3 Norte 6 Norte 0 -- -- 62
2019-03-25 07:00:00 1.4 2 Sudoeste 6 Norte 0 -- -- 63
2019-03-25 06:00:00 1.9 4 Norte 8 Norte 0 -- -- 60
2019-03-25 05:00:00 3.3 0 Calma 3 Sudoeste 0 -- -- 59
2019-03-25 04:00:00 4.2 0 Calma 3 Este 0 -- -- 57
2019-03-25 03:00:00 4.9 0 Calma 3 Oeste 0 -- -- 55
2019-03-25 02:00:00 6 0 Calma 3 Oeste 0 -- -- 51
2019-03-25 01:00:00 7.2 0 Calma 6 Este 0 -- -- 49
2019-03-25 00:00:00 8.5 0 Calma 9 Nordeste 0 -- -- 44